Time;durP1;ratioP1;P1;durP2;ratioP2;P2;SDS_P1;SDS_P2;PMS_P1;PMS_P2;Temp;Humidity;BMP_temperature;BMP_pressure;BME280_temperature;BME280_humidity;BME280_pressure;Samples;Min_cycle;Max_cycle;Signal;HPM_P1;HPM_P2
2021/06/17 00:00:08;;;;;;;4.85;4.32;;;;;;;19.32;100.00;100139.47;6220357;22;20375;-79
2021/06/17 00:02:34;;;;;;;6.45;3.80;;;;;;;19.32;100.00;100140.28;6219470;22;20008;-79
2021/06/17 00:05:00;;;;;;;4.18;3.78;;;;;;;19.47;100.00;100146.31;6219337;23;20043;-78
2021/06/17 00:07:26;;;;;;;4.32;3.92;;;;;;;19.45;100.00;100146.38;6221319;23;20098;-79
2021/06/17 00:09:51;;;;;;;4.75;4.25;;;;;;;19.40;100.00;100140.69;6221202;22;20005;-81
2021/06/17 00:12:17;;;;;;;5.30;3.92;;;;;;;19.25;99.79;100139.03;6221077;23;20028;-84
2021/06/17 00:14:42;;;;;;;4.97;3.67;;;;;;;19.40;98.90;100145.00;6194226;23;20034;-79
2021/06/17 00:17:08;;;;;;;4.78;3.42;;;;;;;19.35;99.23;100134.97;6221011;22;20009;-82
2021/06/17 00:19:34;;;;;;;5.07;4.00;;;;;;;19.39;99.26;100139.03;6194493;22;20475;-83
2021/06/17 00:22:00;;;;;;;4.35;3.95;;;;;;;19.40;99.16;100134.69;6194957;22;20019;-80
2021/06/17 00:24:25;;;;;;;5.10;3.67;;;;;;;19.42;99.61;100135.44;6222860;22;20267;-79
2021/06/17 00:26:51;;;;;;;6.20;3.90;;;;;;;19.43;99.92;100130.16;6221679;22;20016;-82
2021/06/17 00:29:18;;;;;;;4.05;3.65;;;;;;;19.34;99.47;100119.59;6195235;22;20020;-85
2021/06/17 00:31:45;;;;;;;5.20;4.32;;;;;;;19.33;99.85;100117.97;6221375;22;20009;-84
2021/06/17 00:34:13;;;;;;;5.38;3.70;;;;;;;19.21;100.00;100119.50;6195393;22;20024;-83
2021/06/17 00:36:39;;;;;;;4.93;4.00;;;;;;;19.34;100.00;100124.75;6194631;22;20024;-83
2021/06/17 00:39:09;;;;;;;4.25;3.83;;;;;;;19.37;99.47;100122.00;6194905;22;20017;-81
2021/06/17 00:41:39;;;;;;;6.97;3.97;;;;;;;19.22;100.00;100110.84;6221123;22;20012;-82
2021/06/17 00:44:06;;;;;;;4.60;3.65;;;;;;;19.21;100.00;100114.34;6194842;22;20016;-83
2021/06/17 00:46:32;;;;;;;5.20;4.30;;;;;;;19.33;100.00;100110.22;6195131;22;20048;-81
2021/06/17 00:48:58;;;;;;;6.97;3.83;;;;;;;19.22;99.92;100113.41;6222413;22;20361;-80
2021/06/17 00:51:23;;;;;;;7.30;3.67;;;;;;;19.33;99.13;100108.44;6220780;23;20279;-78
2021/06/17 00:53:49;;;;;;;5.00;3.90;;;;;;;19.25;99.12;100108.09;6194635;22;20004;-79
2021/06/17 00:56:16;;;;;;;4.93;3.97;;;;;;;19.39;98.32;100117.59;6195133;22;20077;-80
2021/06/17 00:58:42;;;;;;;6.65;3.80;;;;;;;19.32;98.62;100122.25;6229518;22;20015;-80
2021/06/17 01:01:08;;;;;;;4.25;3.85;;;;;;;19.38;98.18;100121.91;6193974;22;20013;-80
2021/06/17 01:03:33;;;;;;;4.38;3.97;;;;;;;19.56;97.31;100128.50;6194118;22;20019;-79
2021/06/17 01:05:59;;;;;;;4.80;4.30;;;;;;;19.50;97.25;100125.47;6221296;22;20015;-79
2021/06/17 01:08:46;;;;;;;5.07;3.75;;;;;;;19.59;96.10;100133.47;6220696;22;20371;-79
2021/06/17 01:11:24;;;;;;;6.25;4.50;;;;;;;19.43;98.13;100119.84;6220859;23;20024;-80
2021/06/17 01:13:58;;;;;;;4.45;4.00;;;;;;;19.21;100.00;100124.66;6194775;22;20052;-81
2021/06/17 01:16:32;;;;;;;4.95;4.28;;;;;;;19.40;98.50;100129.53;6194893;22;20012;-80
2021/06/17 01:19:30;;;;;;;4.93;4.43;;;;;;;19.43;97.46;100132.75;6220316;23;20101;-80
2021/06/17 01:22:02;;;;;;;4.45;4.05;;;;;;;19.26;97.87;100126.94;6193523;23;20103;-79
2021/06/17 01:24:41;;;;;;;5.32;4.18;;;;;;;19.30;98.47;100115.53;6194528;22;20032;-79
2021/06/17 01:27:27;;;;;;;4.82;4.32;;;;;;;19.48;97.48;100120.41;6221317;22;20032;-79
2021/06/17 01:29:58;;;;;;;5.57;4.28;;;;;;;19.33;98.84;100117.97;6221850;23;20101;-81
2021/06/17 01:32:25;;;;;;;5.20;4.25;;;;;;;19.41;98.43;100126.84;6220759;22;20049;-79
2021/06/17 01:34:54;;;;;;;4.43;4.03;;;;;;;19.44;98.99;100115.53;6194376;22;20012;-84
2021/06/17 01:37:22;;;;;;;5.47;4.10;;;;;;;19.21;99.63;100118.69;6220817;23;20005;-80
2021/06/17 01:39:51;;;;;;;5.43;4.43;;;;;;;19.27;98.77;100126.03;6194502;23;20102;-81
2021/06/17 01:42:20;;;;;;;5.30;4.10;;;;;;;19.09;100.00;100117.69;6195085;22;20008;-80
2021/06/17 01:44:46;;;;;;;4.47;4.07;;;;;;;18.94;100.00;100122.00;6220583;22;20012;-79
2021/06/17 01:47:13;;;;;;;5.82;4.53;;;;;;;19.07;100.00;100116.09;6220595;22;20005;-78
2021/06/17 01:49:40;;;;;;;9.23;5.30;;;;;;;18.63;100.00;100116.19;6220319;22;20072;-78
2021/06/17 01:52:06;;;;;;;8.32;5.78;;;;;;;18.59;100.00;100112.97;6194038;22;20041;-79
2021/06/17 01:54:33;;;;;;;7.15;5.47;;;;;;;18.76;100.00;100110.22;6194319;22;20300;-79
2021/06/17 01:57:01;;;;;;;8.77;5.50;;;;;;;18.31;100.00;100120.59;6220727;22;20108;-80
2021/06/17 01:59:29;;;;;;;7.10;4.53;;;;;;;18.70;100.00;100132.91;6194280;22;20028;-81
2021/06/17 02:02:03;;;;;;;6.60;5.32;;;;;;;18.62;100.00;100130.78;6193642;22;20019;-79
2021/06/17 02:04:48;;;;;;;6.93;4.97;;;;;;;18.47;100.00;100141.16;6194474;22;20008;-80
2021/06/17 02:07:19;;;;;;;7.03;4.70;;;;;;;18.61;100.00;100124.00;6194057;22;20009;-79
2021/06/17 02:10:18;;;;;;;7.07;4.97;;;;;;;18.46;100.00;100127.44;6194031;22;20005;-79
2021/06/17 02:16:06;;;;;;;7.60;4.30;;;;;;;18.63;100.00;100123.91;6220613;23;20011;-81
2021/06/17 02:19:27;;;;;;;6.00;4.40;;;;;;;18.68;100.00;100125.28;6194219;22;20012;-79
2021/06/17 02:25:28;;;;;;;4.95;4.22;;;;;;;18.88;100.00;100121.53;6220829;23;20015;-78
2021/06/17 02:28:29;;;;;;;6.82;4.63;;;;;;;18.42;100.00;100123.34;6220638;23;20040;-77
2021/06/17 02:34:23;;;;;;;6.53;4.63;;;;;;;18.72;100.00;100105.31;6220720;23;20024;-76
2021/06/17 02:36:52;;;;;;;5.38;4.88;;;;;;;18.61;100.00;100107.72;6193980;22;20061;-80
2021/06/17 02:39:41;;;;;;;7.10;4.45;;;;;;;18.76;100.00;100115.34;6193958;22;20028;-78
2021/06/17 02:42:26;;;;;;;6.40;4.72;;;;;;;18.63;100.00;100122.16;6193881;22;20013;-78
2021/06/17 02:45:32;;;;;;;8.50;4.70;;;;;;;18.70;100.00;100118.28;6220347;22;20029;-79
2021/06/17 02:48:17;;;;;;;6.65;4.32;;;;;;;18.73;100.00;100118.13;6193864;23;20146;-81
2021/06/17 02:50:48;;;;;;;6.40;4.80;;;;;;;18.68;100.00;100129.59;6193776;22;20040;-80
2021/06/17 02:53:21;;;;;;;5.32;4.13;;;;;;;18.93;100.00;100120.34;6193978;22;20004;-82
2021/06/17 02:59:22;;;;;;;5.57;4.20;;;;;;;18.95;100.00;100118.50;6220594;23;20024;-79
2021/06/17 03:02:37;;;;;;;4.65;4.25;;;;;;;18.73;100.00;100123.28;6193741;22;20004;-77
2021/06/17 03:05:13;;;;;;;5.72;4.55;;;;;;;18.76;100.00;100125.66;6193006;23;20008;-77
2021/06/17 03:08:07;;;;;;;6.00;4.30;;;;;;;18.85;100.00;100132.88;6193637;22;20104;-77
2021/06/17 03:10:55;;;;;;;7.63;5.35;;;;;;;18.69;99.90;100131.28;6193747;22;20016;-78
2021/06/17 03:16:53;;;;;;;5.57;4.43;;;;;;;18.90;99.54;100130.81;6220278;23;20024;-83
2021/06/17 03:22:56;;;;;;;5.20;4.13;;;;;;;18.81;98.88;100133.13;6220767;23;20130;-83
2021/06/17 03:26:04;;;;;;;4.85;4.15;;;;;;;19.04;98.29;100133.41;6194001;22;20263;-83
2021/06/17 03:28:38;;;;;;;4.97;4.38;;;;;;;19.05;98.67;100139.41;6220486;23;20009;-82
2021/06/17 03:34:27;;;;;;;7.33;4.57;;;;;;;19.02;98.06;100161.03;6220402;23;20098;-83
2021/06/17 03:36:58;;;;;;;8.35;4.65;;;;;;;19.18;98.09;100163.50;6193827;22;20259;-81
2021/06/17 03:39:28;;;;;;;7.28;4.60;;;;;;;19.35;96.34;100159.94;6220082;22;20032;-80
2021/06/17 03:42:21;;;;;;;4.90;4.43;;;;;;;19.34;97.51;100166.84;6221405;22;20105;-80
2021/06/17 03:44:54;;;;;;;5.32;4.30;;;;;;;19.35;97.40;100163.34;6197387;22;20005;-81
2021/06/17 03:47:30;;;;;;;10.70;5.03;;;;;;;19.43;97.24;100168.06;6195252;22;20050;-80
2021/06/17 03:50:12;;;;;;;6.50;4.55;;;;;;;19.71;97.73;100181.72;6221366;22;20005;-80
2021/06/17 03:56:00;;;;;;;8.38;4.65;;;;;;;19.68;96.67;100181.91;6220925;23;20089;-75
2021/06/17 03:58:28;;;;;;;5.20;4.20;;;;;;;19.82;95.84;100183.63;6220356;22;20024;-75
2021/06/17 04:00:59;;;;;;;6.82;4.25;;;;;;;19.84;95.42;100194.69;6191001;22;20021;-77
2021/06/17 04:03:32;;;;;;;6.30;4.40;;;;;;;19.85;94.77;100192.00;6193235;22;20008;-75
2021/06/17 04:06:11;;;;;;;6.05;4.22;;;;;;;19.95;93.63;100194.84;6194234;22;20332;-75
2021/06/17 04:08:57;;;;;;;5.90;4.78;;;;;;;19.95;93.69;100188.88;6192247;22;20008;-73
2021/06/17 04:11:25;;;;;;;5.10;3.90;;;;;;;20.08;92.35;100200.06;6192404;23;20089;-73
2021/06/17 04:14:15;;;;;;;5.65;4.30;;;;;;;20.27;92.47;100205.72;6193632;22;20378;-78
2021/06/17 04:16:41;;;;;;;8.32;4.65;;;;;;;20.40;92.36;100207.41;6190132;22;20012;-77
2021/06/17 04:19:08;;;;;;;5.43;4.60;;;;;;;20.38;91.78;100214.44;6189029;22;20012;-77
2021/06/17 04:21:36;;;;;;;9.15;5.70;;;;;;;19.48;99.27;100221.00;6188627;22;20024;-76
2021/06/17 04:24:05;;;;;;;11.30;5.38;;;;;;;19.79;98.45;100215.63;6187624;22;20020;-76
2021/06/17 04:26:44;;;;;;;8.95;5.47;;;;;;;19.72;99.20;100221.25;6189047;22;20000;-76
2021/06/17 04:29:18;;;;;;;7.82;5.45;;;;;;;19.64;99.48;100211.41;6215238;22;20020;-73
2021/06/17 04:31:55;;;;;;;8.25;5.97;;;;;;;19.68;99.86;100214.63;6187261;22;20448;-75
2021/06/17 04:34:25;;;;;;;9.68;5.68;;;;;;;19.73;99.47;100205.66;6188338;22;20056;-75
2021/06/17 04:37:02;;;;;;;8.50;5.70;;;;;;;19.81;99.94;100218.09;6188018;22;20045;-75
2021/06/17 04:39:32;;;;;;;7.28;5.70;;;;;;;19.58;100.00;100227.25;6188036;22;20058;-73
2021/06/17 04:41:58;;;;;;;6.70;6.00;;;;;;;19.90;99.32;100225.28;6188424;22;20005;-73
2021/06/17 04:44:43;;;;;;;10.40;5.93;;;;;;;19.72;98.95;100239.31;6214920;22;20680;-74
2021/06/17 04:47:10;;;;;;;6.88;5.47;;;;;;;19.82;98.33;100237.84;6187823;22;20012;-73
2021/06/17 04:49:43;;;;;;;9.55;6.47;;;;;;;19.63;100.00;100242.47;6219490;22;20009;-73
2021/06/17 04:52:47;;;;;;;8.88;6.18;;;;;;;19.58;100.00;100229.00;6193028;22;20359;-73
2021/06/17 04:55:20;;;;;;;12.95;6.97;;;;;;;19.19;100.00;100234.78;6193319;23;20028;-74
2021/06/17 04:58:01;;;;;;;12.10;6.57;;;;;;;19.23;100.00;100230.28;6219931;22;20005;-73
2021/06/17 05:00:28;;;;;;;11.52;7.18;;;;;;;19.56;100.00;100239.44;6220620;22;20117;-74
2021/06/17 05:03:03;;;;;;;9.10;7.30;;;;;;;19.36;100.00;100249.28;6193359;23;20013;-74
2021/06/17 05:05:37;;;;;;;10.45;7.45;;;;;;;19.83;100.00;100237.72;6193118;22;20094;-73
2021/06/17 05:10:53;;;;;;;9.07;7.35;;;;;;;20.88;98.84;100243.94;6220126;23;20351;-73
2021/06/17 05:13:50;;;;;;;8.35;7.55;;;;;;;20.97;98.49;100253.66;6219533;22;20016;-74
2021/06/17 05:16:19;;;;;;;10.02;7.63;;;;;;;21.19;97.18;100254.75;6219838;23;20015;-74
2021/06/17 05:18:50;;;;;;;12.02;8.05;;;;;;;21.14;96.40;100248.22;6192958;23;20027;-74
2021/06/17 05:21:24;;;;;;;11.90;7.68;;;;;;;21.56;96.16;100240.97;6219509;22;20065;-73
2021/06/17 05:23:50;;;;;;;18.98;7.28;;;;;;;21.44;96.84;100240.97;6219468;23;20012;-74
2021/06/17 05:26:25;;;;;;;7.78;6.65;;;;;;;21.37;96.05;100253.47;6219695;22;20041;-74
2021/06/17 05:28:55;;;;;;;8.10;6.30;;;;;;;21.56;93.73;100260.84;6193094;22;20020;-73
2021/06/17 05:31:27;;;;;;;9.57;6.65;;;;;;;21.82;92.97;100241.78;6219356;23;20023;-76
2021/06/17 05:34:08;;;;;;;10.43;7.07;;;;;;;21.99;91.03;100248.34;6192477;22;20019;-74
2021/06/17 05:36:50;;;;;;;8.75;6.55;;;;;;;22.01;90.74;100249.06;6219587;22;20024;-75
2021/06/17 05:39:17;;;;;;;9.30;6.90;;;;;;;22.04;91.29;100252.28;6192862;22;20024;-74
2021/06/17 05:41:44;;;;;;;9.02;7.03;;;;;;;21.79;92.09;100262.66;6220004;22;20004;-74
2021/06/17 05:44:44;;;;;;;10.15;7.53;;;;;;;22.11;90.61;100256.06;6219392;23;20008;-74
2021/06/17 05:47:16;;;;;;;13.07;7.60;;;;;;;22.18;91.04;100262.50;6192543;22;20025;-74
2021/06/17 05:49:44;;;;;;;7.80;6.50;;;;;;;21.80;91.69;100261.72;6219685;22;20101;-74
2021/06/17 05:52:10;;;;;;;8.82;6.93;;;;;;;21.86;90.24;100266.50;6192942;22;20040;-74
2021/06/17 05:55:17;;;;;;;9.23;6.32;;;;;;;21.69;90.90;100271.19;6219979;22;20012;-74
2021/06/17 05:57:57;;;;;;;7.70;6.40;;;;;;;21.81;89.86;100268.59;6219636;23;20001;-73
2021/06/17 06:03:44;;;;;;;9.75;6.80;;;;;;;22.60;88.31;100271.53;6219628;23;20018;-74
2021/06/17 06:06:13;;;;;;;11.30;6.85;;;;;;;22.51;88.33;100260.97;6192660;22;20028;-74
2021/06/17 06:09:08;;;;;;;9.77;7.00;;;;;;;22.58;88.15;100254.47;6219093;23;20279;-74
2021/06/17 06:11:52;;;;;;;9.85;6.75;;;;;;;22.76;87.71;100260.91;6219529;22;20060;-74
2021/06/17 06:14:43;;;;;;;9.00;6.10;;;;;;;22.95;86.93;100258.59;6219148;23;20024;-73
2021/06/17 06:17:16;;;;;;;9.73;6.03;;;;;;;23.69;84.89;100248.53;6220103;23;20379;-73
2021/06/17 06:19:48;;;;;;;7.65;6.03;;;;;;;23.78;82.48;100247.81;6192699;22;20004;-73
2021/06/17 06:22:14;;;;;;;6.45;5.72;;;;;;;24.25;80.81;100251.03;6218796;23;20016;-74
2021/06/17 06:24:40;;;;;;;6.60;5.40;;;;;;;24.24;80.11;100250.25;6219048;22;20024;-74
2021/06/17 06:27:07;;;;;;;10.68;5.85;;;;;;;24.30;81.60;100249.75;6219373;22;20010;-74
2021/06/17 06:29:33;;;;;;;11.75;5.97;;;;;;;24.09;80.71;100251.44;6193179;22;20251;-75
2021/06/17 06:31:58;;;;;;;8.20;5.63;;;;;;;24.87;80.70;100259.81;6219022;23;20028;-73
2021/06/17 06:34:25;;;;;;;7.40;6.15;;;;;;;24.12;81.24;100252.97;6192480;22;20382;-74
2021/06/17 06:36:51;;;;;;;7.75;5.70;;;;;;;23.91;82.75;100252.84;6219138;22;20009;-74
2021/06/17 06:39:18;;;;;;;9.15;6.80;;;;;;;23.81;83.71;100265.75;6218945;22;20005;-74
2021/06/17 06:41:45;;;;;;;7.68;5.82;;;;;;;23.76;84.00;100260.09;6219420;22;20024;-74
2021/06/17 06:44:10;;;;;;;10.25;5.97;;;;;;;23.72;83.73;100250.91;6218933;22;20013;-74
2021/06/17 06:46:41;;;;;;;7.38;5.55;;;;;;;24.37;81.64;100248.28;6219006;23;20009;-74
2021/06/17 06:49:07;;;;;;;8.67;5.97;;;;;;;24.45;83.20;100253.69;6218823;22;20031;-74
2021/06/17 06:51:38;;;;;;;9.25;6.05;;;;;;;24.72;82.77;100255.84;6218821;22;20407;-74
2021/06/17 06:54:04;;;;;;;9.50;6.13;;;;;;;24.43;82.76;100249.56;6192568;22;20008;-74
2021/06/17 06:56:29;;;;;;;6.78;6.00;;;;;;;24.62;84.27;100257.53;6192632;22;20015;-74
2021/06/17 06:58:55;;;;;;;7.20;5.63;;;;;;;24.91;82.26;100248.19;6192151;22;20009;-75
2021/06/17 07:01:20;;;;;;;9.20;5.80;;;;;;;24.83;81.23;100258.41;6219625;22;20019;-74
2021/06/17 07:03:46;;;;;;;5.40;4.90;;;;;;;24.87;80.90;100255.44;6218974;22;20270;-74
2021/06/17 07:06:11;;;;;;;6.75;5.10;;;;;;;25.58;79.75;100259.81;6219210;22;20008;-73
2021/06/17 07:08:37;;;;;;;8.65;5.68;;;;;;;25.45;78.69;100256.59;6192823;22;20109;-74
2021/06/17 07:11:02;;;;;;;9.82;4.70;;;;;;;25.37;76.14;100261.63;6218592;22;20433;-74
2021/06/17 07:13:28;;;;;;;6.80;4.43;;;;;;;25.88;76.90;100261.56;6192309;23;20097;-73
2021/06/17 07:15:54;;;;;;;8.13;5.57;;;;;;;25.90;75.74;100258.81;6192128;22;20008;-74
2021/06/17 07:18:20;;;;;;;5.40;4.03;;;;;;;25.90;72.00;100259.66;6218874;22;20017;-74
2021/06/17 07:20:46;;;;;;;4.63;4.10;;;;;;;26.13;72.13;100247.22;6219008;22;20005;-74
2021/06/17 07:23:11;;;;;;;6.18;3.83;;;;;;;26.03;70.93;100248.97;6191961;22;20244;-74
2021/06/17 07:25:37;;;;;;;7.68;4.00;;;;;;;26.25;70.89;100253.97;6218684;22;20023;-73
2021/06/17 07:28:04;;;;;;;4.53;3.42;;;;;;;26.61;68.19;100240.25;6191764;22;20028;-74
2021/06/17 07:30:30;;;;;;;4.10;3.60;;;;;;;26.43;67.06;100247.13;6192498;22;20032;-74
2021/06/17 07:32:56;;;;;;;3.97;3.15;;;;;;;26.71;64.60;100251.53;6218799;22;20020;-74
2021/06/17 07:35:21;;;;;;;3.72;3.22;;;;;;;26.84;64.36;100249.44;6218362;23;20025;-74
2021/06/17 07:37:47;;;;;;;3.45;3.13;;;;;;;26.25;64.43;100251.34;6218418;23;20008;-74
2021/06/17 07:40:13;;;;;;;5.50;2.85;;;;;;;26.90;62.76;100241.06;6218666;23;20009;-74
2021/06/17 07:42:39;;;;;;;3.95;3.00;;;;;;;27.23;63.14;100244.97;6218756;22;20005;-74
2021/06/17 07:45:06;;;;;;;3.38;3.08;;;;;;;26.45;63.39;100246.03;6218626;22;20017;-75
2021/06/17 07:47:32;;;;;;;8.95;5.18;;;;;;;26.75;61.57;100226.81;6192352;22;20380;-74
2021/06/17 07:49:57;;;;;;;5.25;3.33;;;;;;;27.14;60.39;100241.41;6218831;22;20008;-75
2021/06/17 07:52:23;;;;;;;4.43;2.78;;;;;;;27.06;59.98;100238.69;6191660;23;20044;-74
2021/06/17 07:54:49;;;;;;;3.33;2.85;;;;;;;27.58;58.53;100233.84;6218601;22;20004;-74
2021/06/17 07:57:14;;;;;;;4.35;2.67;;;;;;;27.97;58.53;100222.28;6191539;23;20012;-74
2021/06/17 07:59:39;;;;;;;3.85;2.60;;;;;;;27.80;56.86;100233.47;6191389;22;20036;-73
2021/06/17 08:02:05;;;;;;;2.95;2.55;;;;;;;27.75;56.08;100235.72;6218128;22;20021;-74
2021/06/17 08:04:31;;;;;;;3.50;2.60;;;;;;;27.28;56.22;100224.47;6218453;22;20013;-74
2021/06/17 08:06:56;;;;;;;2.80;2.45;;;;;;;28.06;55.53;100227.44;6191631;22;20009;-74
2021/06/17 08:09:22;;;;;;;2.88;2.65;;;;;;;28.07;52.66;100220.38;6218411;22;20009;-74
2021/06/17 08:11:50;;;;;;;6.20;2.63;;;;;;;28.14;55.13;100227.50;6191056;22;20009;-74
2021/06/17 08:14:22;;;;;;;6.50;3.58;;;;;;;28.77;53.42;100235.25;6191517;22;20035;-74
2021/06/17 08:16:48;;;;;;;3.25;2.80;;;;;;;28.49;51.37;100228.47;6218225;22;20028;-73
2021/06/17 08:19:14;;;;;;;3.35;2.35;;;;;;;28.59;51.44;100235.28;6191362;22;20012;-73
2021/06/17 08:21:40;;;;;;;3.85;2.33;;;;;;;29.00;52.40;100226.75;6191005;22;20012;-74
2021/06/17 08:24:06;;;;;;;3.85;2.33;;;;;;;28.93;52.47;100230.13;6191826;22;20236;-73
2021/06/17 08:26:32;;;;;;;3.35;2.53;;;;;;;28.97;51.44;100224.44;6191122;22;20011;-74
2021/06/17 08:28:59;;;;;;;3.97;2.42;;;;;;;28.80;51.81;100217.44;6219528;23;20394;-74
2021/06/17 08:31:28;;;;;;;2.55;2.35;;;;;;;29.34;50.00;100226.78;6219685;22;20016;-74
2021/06/17 08:33:53;;;;;;;5.13;2.30;;;;;;;28.60;51.24;100228.25;6193081;22;20376;-74
2021/06/17 08:36:19;;;;;;;2.67;2.20;;;;;;;28.56;49.02;100238.22;6219802;22;20096;-73
2021/06/17 08:38:46;;;;;;;2.90;1.95;;;;;;;28.48;50.09;100226.81;6219309;22;20371;-73
2021/06/17 08:41:12;;;;;;;2.58;2.30;;;;;;;28.27;50.57;100227.94;6219783;22;20113;-73
2021/06/17 08:43:38;;;;;;;3.60;2.20;;;;;;;28.88;51.58;100232.41;6219528;22;20044;-73
2021/06/17 08:46:03;;;;;;;3.40;2.30;;;;;;;28.80;51.88;100222.69;6219215;23;20013;-73
2021/06/17 08:48:30;;;;;;;2.58;2.38;;;;;;;28.36;53.00;100217.56;6219414;22;20020;-73
2021/06/17 08:50:56;;;;;;;2.50;2.30;;;;;;;29.09;50.84;100223.22;6219173;22;20079;-73
2021/06/17 08:53:22;;;;;;;2.38;2.15;;;;;;;29.20;50.91;100230.00;6192602;22;20100;-73
2021/06/17 08:55:48;;;;;;;3.05;2.33;;;;;;;28.92;51.78;100221.44;6219567;22;20005;-73
2021/06/17 08:58:14;;;;;;;2.40;2.13;;;;;;;29.33;49.80;100213.84;6192741;22;20369;-73
2021/06/17 09:00:42;;;;;;;2.83;2.20;;;;;;;29.62;47.58;100211.66;6219101;22;20071;-73
2021/06/17 09:03:09;;;;;;;3.47;2.30;;;;;;;29.33;48.73;100213.84;6192773;22;20061;-73
2021/06/17 09:05:38;;;;;;;3.67;2.47;;;;;;;29.75;48.60;100209.47;6219192;22;20013;-73
2021/06/17 09:08:05;;;;;;;3.03;2.40;;;;;;;30.04;48.14;100209.84;6192618;22;20035;-73
2021/06/17 09:10:31;;;;;;;3.70;2.28;;;;;;;29.99;48.09;100209.50;6192922;22;20220;-74
2021/06/17 09:13:03;;;;;;;2.70;2.50;;;;;;;29.70;49.27;100211.69;6219355;22;20096;-73
2021/06/17 09:15:33;;;;;;;8.85;3.10;;;;;;;29.10;50.47;100214.38;6192127;23;20019;-74
2021/06/17 09:18:16;;;;;;;2.50;2.30;;;;;;;29.39;49.96;100218.47;6193143;22;20004;-74
2021/06/17 09:20:50;;;;;;;4.47;2.40;;;;;;;29.80;48.47;100210.63;6219479;22;20017;-74
2021/06/17 09:23:22;;;;;;;2.40;2.20;;;;;;;28.64;49.81;100211.28;6192762;22;20102;-74
2021/06/17 09:25:59;;;;;;;3.58;2.60;;;;;;;28.55;50.25;100210.38;6192274;22;20078;-73
2021/06/17 09:28:44;;;;;;;3.40;2.30;;;;;;;28.96;49.07;100209.69;6192483;22;20020;-73
2021/06/17 09:31:21;;;;;;;5.35;2.15;;;;;;;29.08;49.65;100207.63;6192802;22;20096;-72
2021/06/17 09:33:49;;;;;;;2.53;2.20;;;;;;;28.43;50.47;100208.94;6219038;22;20005;-73
2021/06/17 09:36:16;;;;;;;3.08;2.42;;;;;;;28.21;50.95;100214.63;6219295;22;20016;-73
2021/06/17 09:38:54;;;;;;;4.55;2.10;;;;;;;28.02;51.06;100207.78;6219029;22;20015;-73
2021/06/17 09:41:30;;;;;;;2.75;2.35;;;;;;;27.89;52.33;100207.25;6192619;22;20310;-72
2021/06/17 09:43:56;;;;;;;2.33;2.13;;;;;;;28.94;50.98;100211.66;6192354;22;20267;-73
2021/06/17 09:46:22;;;;;;;4.22;2.58;;;;;;;28.89;51.69;100213.09;6192110;22;20012;-73
2021/06/17 09:48:51;;;;;;;6.13;2.67;;;;;;;27.36;56.31;100214.16;6218899;22;20008;-73
2021/06/17 09:51:44;;;;;;;3.15;2.50;;;;;;;27.02;58.00;100224.28;6219384;22;20379;-72
2021/06/17 09:54:21;;;;;;;3.58;2.28;;;;;;;26.80;57.36;100218.56;6218560;23;20056;-73
2021/06/17 09:57:01;;;;;;;4.53;2.58;;;;;;;26.41;58.28;100217.72;6192101;22;20016;-72
2021/06/17 09:59:46;;;;;;;3.22;2.15;;;;;;;26.43;59.18;100218.41;6219335;23;20029;-73
2021/06/17 10:02:21;;;;;;;2.95;2.25;;;;;;;26.17;58.75;100225.13;6219223;22;20070;-73
2021/06/17 10:04:47;;;;;;;2.95;2.10;;;;;;;26.46;58.18;100218.16;6192309;22;20490;-72
2021/06/17 10:07:17;;;;;;;2.97;1.83;;;;;;;26.46;58.67;100215.56;6218839;22;20048;-73
2021/06/17 10:09:44;;;;;;;2.38;2.00;;;;;;;26.68;56.93;100204.00;6192191;22;20009;-73
2021/06/17 10:12:10;;;;;;;3.13;1.90;;;;;;;26.64;54.35;100206.88;6219054;22;20004;-73
2021/06/17 10:14:37;;;;;;;2.67;2.00;;;;;;;26.83;54.58;100207.84;6192713;22;20012;-73
2021/06/17 10:17:04;;;;;;;4.55;2.50;;;;;;;26.75;53.72;100205.09;6219146;22;20005;-73
2021/06/17 10:19:32;;;;;;;3.85;2.17;;;;;;;26.75;53.14;100205.94;6218946;22;20502;-73
2021/06/17 10:21:59;;;;;;;2.30;2.10;;;;;;;26.36;54.39;100194.69;6192828;22;20004;-73
2021/06/17 10:24:27;;;;;;;5.18;2.70;;;;;;;26.84;55.24;100201.66;6192040;22;20009;-73
2021/06/17 10:26:57;;;;;;;2.45;2.25;;;;;;;27.04;55.00;100192.81;6218850;22;20008;-73
2021/06/17 10:29:32;;;;;;;3.70;2.47;;;;;;;26.68;55.27;100189.16;6219802;22;20100;-73
2021/06/17 10:31:58;;;;;;;4.00;2.47;;;;;;;26.85;55.60;100191.06;6192144;22;20020;-74
2021/06/17 10:34:24;;;;;;;3.53;2.45;;;;;;;26.88;53.77;100189.97;6192167;22;20016;-72
2021/06/17 10:37:16;;;;;;;3.40;2.17;;;;;;;27.25;52.58;100189.03;6218985;23;20008;-74
2021/06/17 10:39:51;;;;;;;6.70;2.03;;;;;;;27.28;50.55;100193.94;6218933;23;20028;-74
2021/06/17 10:42:26;;;;;;;3.40;2.00;;;;;;;27.14;49.20;100193.59;6192268;22;20101;-74
2021/06/17 10:45:00;;;;;;;3.10;2.00;;;;;;;27.48;49.39;100183.44;6192391;22;20016;-73
2021/06/17 10:47:42;;;;;;;3.05;2.70;;;;;;;27.96;49.65;100191.84;6192333;22;20009;-73
2021/06/17 10:50:13;;;;;;;3.65;2.60;;;;;;;28.04;49.07;100182.28;6191197;22;20012;-73
2021/06/17 10:52:41;;;;;;;;;;;;;;;28.18;49.28;100175.72;6192880;22;20024;-73
2021/06/17 10:55:14;;;;;;;3.33;2.53;;;;;;;28.00;50.06;100175.72;6191699;22;20251;-73
2021/06/17 10:57:49;;;;;;;3.50;2.22;;;;;;;27.92;50.62;100177.41;6191984;22;20012;-73
2021/06/17 11:00:28;;;;;;;5.35;2.53;;;;;;;27.58;52.23;100171.13;6192026;22;20136;-73
2021/06/17 11:02:56;;;;;;;2.85;2.45;;;;;;;27.74;53.20;100164.31;6218838;23;20005;-73
2021/06/17 11:05:31;;;;;;;2.88;2.40;;;;;;;27.57;52.49;100164.28;6192306;23;20267;-73
2021/06/17 11:08:22;;;;;;;4.00;2.63;;;;;;;28.25;52.74;100159.25;6218410;23;20023;-74
2021/06/17 11:11:05;;;;;;;4.90;2.30;;;;;;;29.38;49.35;100162.59;6192603;22;20123;-73
2021/06/17 11:13:39;;;;;;;4.50;2.55;;;;;;;29.37;49.23;100154.91;6192523;22;20012;-73
2021/06/17 11:16:14;;;;;;;3.28;2.60;;;;;;;28.89;50.24;100153.69;6192216;22;20260;-74
2021/06/17 11:18:50;;;;;;;2.40;2.20;;;;;;;29.07;49.11;100146.59;6219063;23;20480;-74
2021/06/17 11:21:28;;;;;;;3.55;2.65;;;;;;;29.58;49.00;100150.88;6192170;22;20310;-74
2021/06/17 11:24:23;;;;;;;4.00;2.25;;;;;;;29.38;48.00;100141.63;6218939;23;20097;-74
2021/06/17 11:26:51;;;;;;;3.53;2.60;;;;;;;29.90;47.43;100147.53;6191456;22;20004;-74
2021/06/17 11:29:40;;;;;;;5.20;2.70;;;;;;;29.79;47.48;100156.53;6219003;23;20013;-73
2021/06/17 11:32:27;;;;;;;5.65;3.00;;;;;;;30.38;45.86;100154.63;6218638;22;20004;-73
2021/06/17 11:34:53;;;;;;;3.13;2.40;;;;;;;30.19;46.42;100150.50;6218506;22;20015;-73
2021/06/17 11:37:18;;;;;;;2.80;2.20;;;;;;;29.78;45.76;100148.81;6191973;23;20073;-73
2021/06/17 11:39:47;;;;;;;2.75;2.30;;;;;;;29.98;47.86;100149.34;6191709;22;20024;-74
2021/06/17 11:42:21;;;;;;;4.63;3.00;;;;;;;29.63;46.21;100143.34;6218449;22;20106;-73
2021/06/17 11:45:10;;;;;;;3.58;2.40;;;;;;;29.84;46.75;100135.06;6191874;22;20015;-74
2021/06/17 11:47:49;;;;;;;3.63;2.55;;;;;;;30.05;47.49;100138.03;6191567;23;20016;-74
2021/06/17 11:50:15;;;;;;;4.57;2.30;;;;;;;29.94;47.06;100141.81;6192315;22;20019;-74
2021/06/17 11:52:41;;;;;;;3.25;2.30;;;;;;;29.32;48.07;100130.97;6191380;22;20025;-74
2021/06/17 11:55:09;;;;;;;3.03;2.20;;;;;;;30.12;47.48;100131.16;6218243;23;20012;-74
2021/06/17 11:57:38;;;;;;;5.22;2.72;;;;;;;30.53;46.42;100127.53;6191567;22;20100;-74
2021/06/17 12:00:07;;;;;;;2.80;2.53;;;;;;;29.67;46.25;100134.16;6191644;22;20013;-74
2021/06/17 12:02:32;;;;;;;3.33;2.38;;;;;;;29.11;47.82;100124.34;6192445;22;20015;-73
2021/06/17 12:05:04;;;;;;;2.75;2.20;;;;;;;30.19;46.23;100133.94;6193463;22;20016;-75
2021/06/17 12:07:31;;;;;;;2.65;2.28;;;;;;;30.43;45.52;100129.50;6219878;22;20044;-75
2021/06/17 12:10:21;;;;;;;3.88;2.30;;;;;;;30.55;44.83;100130.81;6221231;22;20027;-74
2021/06/17 12:12:51;;;;;;;2.75;2.13;;;;;;;30.60;43.15;100123.22;6193676;22;20056;-75
2021/06/17 12:15:19;;;;;;;2.20;2.00;;;;;;;31.52;43.19;100127.88;6193915;22;20011;-75
2021/06/17 12:17:46;;;;;;;2.50;2.13;;;;;;;30.13;44.05;100109.16;6193124;22;20012;-74
2021/06/17 12:20:33;;;;;;;2.92;2.33;;;;;;;30.03;45.96;100118.19;6193086;22;20445;-74